sensor_id;sensor_type;location;lat;lon;timestamp;P1;durP1;ratioP1;P2;durP2;ratioP2
32216;SDS011;67098;51.140;4.088;2023-08-21T00:02:00;6.65;;;2.25;;
32216;SDS011;67098;51.140;4.088;2023-08-21T00:04:26;11.02;;;2.30;;
32216;SDS011;67098;51.140;4.088;2023-08-21T00:06:53;8.65;;;1.40;;
32216;SDS011;67098;51.140;4.088;2023-08-21T00:09:18;8.23;;;2.33;;
32216;SDS011;67098;51.140;4.088;2023-08-21T00:11:44;7.30;;;1.60;;
32216;SDS011;67098;51.140;4.088;2023-08-21T00:14:10;7.70;;;1.70;;
32216;SDS011;67098;51.140;4.088;2023-08-21T00:16:36;9.32;;;2.08;;
32216;SDS011;67098;51.140;4.088;2023-08-21T00:19:01;7.88;;;1.60;;
32216;SDS011;67098;51.140;4.088;2023-08-21T00:21:27;8.35;;;1.92;;
32216;SDS011;67098;51.140;4.088;2023-08-21T00:23:53;5.95;;;1.77;;
32216;SDS011;67098;51.140;4.088;2023-08-21T00:26:20;8.25;;;1.70;;
32216;SDS011;67098;51.140;4.088;2023-08-21T00:28:45;11.30;;;2.05;;
32216;SDS011;67098;51.140;4.088;2023-08-21T00:31:11;8.10;;;1.95;;
32216;SDS011;67098;51.140;4.088;2023-08-21T00:33:37;9.82;;;2.03;;
32216;SDS011;67098;51.140;4.088;2023-08-21T00:36:03;7.63;;;2.00;;
32216;SDS011;67098;51.140;4.088;2023-08-21T00:38:29;9.43;;;2.10;;
32216;SDS011;67098;51.140;4.088;2023-08-21T00:40:55;7.28;;;2.20;;
32216;SDS011;67098;51.140;4.088;2023-08-21T00:43:22;9.95;;;1.90;;
32216;SDS011;67098;51.140;4.088;2023-08-21T00:45:49;10.85;;;2.35;;
32216;SDS011;67098;51.140;4.088;2023-08-21T00:48:15;8.50;;;2.33;;
32216;SDS011;67098;51.140;4.088;2023-08-21T00:50:42;7.72;;;1.90;;
32216;SDS011;67098;51.140;4.088;2023-08-21T00:53:10;9.48;;;2.17;;
32216;SDS011;67098;51.140;4.088;2023-08-21T00:55:35;6.53;;;1.67;;
32216;SDS011;67098;51.140;4.088;2023-08-21T00:58:02;7.75;;;2.03;;
32216;SDS011;67098;51.140;4.088;2023-08-21T01:00:29;7.88;;;1.48;;
32216;SDS011;67098;51.140;4.088;2023-08-21T01:02:55;13.15;;;2.53;;
32216;SDS011;67098;51.140;4.088;2023-08-21T01:05:22;7.95;;;1.90;;
32216;SDS011;67098;51.140;4.088;2023-08-21T01:08:33;8.68;;;1.55;;
32216;SDS011;67098;51.140;4.088;2023-08-21T01:16:16;6.38;;;1.70;;
32216;SDS011;67098;51.140;4.088;2023-08-21T01:18:44;7.47;;;1.67;;
32216;SDS011;67098;51.140;4.088;2023-08-21T01:21:12;11.70;;;2.35;;
32216;SDS011;67098;51.140;4.088;2023-08-21T01:23:38;7.43;;;1.60;;
32216;SDS011;67098;51.140;4.088;2023-08-21T01:26:06;7.85;;;2.13;;
32216;SDS011;67098;51.140;4.088;2023-08-21T01:28:32;7.10;;;1.90;;
32216;SDS011;67098;51.140;4.088;2023-08-21T01:33:35;7.40;;;1.60;;
32216;SDS011;67098;51.140;4.088;2023-08-21T01:36:07;5.65;;;1.60;;
32216;SDS011;67098;51.140;4.088;2023-08-21T01:38:33;9.57;;;2.10;;
32216;SDS011;67098;51.140;4.088;2023-08-21T01:41:00;8.48;;;2.05;;
32216;SDS011;67098;51.140;4.088;2023-08-21T01:43:27;6.55;;;1.80;;
32216;SDS011;67098;51.140;4.088;2023-08-21T01:45:53;10.50;;;1.88;;
32216;SDS011;67098;51.140;4.088;2023-08-21T01:48:19;9.82;;;2.13;;
32216;SDS011;67098;51.140;4.088;2023-08-21T01:50:44;10.05;;;1.83;;
32216;SDS011;67098;51.140;4.088;2023-08-21T01:53:10;6.78;;;2.28;;
32216;SDS011;67098;51.140;4.088;2023-08-21T01:55:36;7.35;;;1.65;;
32216;SDS011;67098;51.140;4.088;2023-08-21T01:58:01;13.63;;;2.00;;
32216;SDS011;67098;51.140;4.088;2023-08-21T02:00:27;6.53;;;2.03;;
32216;SDS011;67098;51.140;4.088;2023-08-21T02:02:53;13.63;;;2.20;;
32216;SDS011;67098;51.140;4.088;2023-08-21T02:05:19;6.85;;;1.88;;
32216;SDS011;67098;51.140;4.088;2023-08-21T02:07:44;9.32;;;1.75;;
32216;SDS011;67098;51.140;4.088;2023-08-21T02:10:10;13.40;;;2.30;;
32216;SDS011;67098;51.140;4.088;2023-08-21T02:12:36;9.65;;;2.42;;
32216;SDS011;67098;51.140;4.088;2023-08-21T02:15:02;7.93;;;1.83;;
32216;SDS011;67098;51.140;4.088;2023-08-21T02:17:29;7.22;;;1.70;;
32216;SDS011;67098;51.140;4.088;2023-08-21T02:19:55;7.05;;;1.70;;
32216;SDS011;67098;51.140;4.088;2023-08-21T02:22:20;8.50;;;1.75;;
32216;SDS011;67098;51.140;4.088;2023-08-21T02:24:46;9.00;;;2.10;;
32216;SDS011;67098;51.140;4.088;2023-08-21T02:27:12;9.25;;;2.00;;
32216;SDS011;67098;51.140;4.088;2023-08-21T02:29:38;9.55;;;2.05;;
32216;SDS011;67098;51.140;4.088;2023-08-21T02:32:05;8.23;;;1.67;;
32216;SDS011;67098;51.140;4.088;2023-08-21T02:34:30;5.40;;;1.50;;
32216;SDS011;67098;51.140;4.088;2023-08-21T02:36:56;13.32;;;2.35;;
32216;SDS011;67098;51.140;4.088;2023-08-21T02:39:23;8.43;;;2.15;;
32216;SDS011;67098;51.140;4.088;2023-08-21T02:41:49;8.55;;;2.20;;
32216;SDS011;67098;51.140;4.088;2023-08-21T02:44:15;11.48;;;2.47;;
32216;SDS011;67098;51.140;4.088;2023-08-21T02:46:40;10.25;;;2.10;;
32216;SDS011;67098;51.140;4.088;2023-08-21T02:49:06;9.98;;;2.17;;
32216;SDS011;67098;51.140;4.088;2023-08-21T02:51:32;7.82;;;2.00;;
32216;SDS011;67098;51.140;4.088;2023-08-21T02:53:58;13.95;;;2.45;;
32216;SDS011;67098;51.140;4.088;2023-08-21T02:56:24;8.43;;;1.90;;
32216;SDS011;67098;51.140;4.088;2023-08-21T02:58:50;8.45;;;2.50;;
32216;SDS011;67098;51.140;4.088;2023-08-21T03:01:15;9.93;;;1.75;;
32216;SDS011;67098;51.140;4.088;2023-08-21T03:03:42;7.88;;;1.90;;
32216;SDS011;67098;51.140;4.088;2023-08-21T03:06:08;8.98;;;2.42;;
32216;SDS011;67098;51.140;4.088;2023-08-21T03:08:33;8.90;;;2.10;;
32216;SDS011;67098;51.140;4.088;2023-08-21T03:10:59;8.32;;;1.83;;
32216;SDS011;67098;51.140;4.088;2023-08-21T03:13:25;7.85;;;1.70;;
32216;SDS011;67098;51.140;4.088;2023-08-21T03:15:51;7.05;;;2.08;;
32216;SDS011;67098;51.140;4.088;2023-08-21T03:18:16;9.27;;;2.08;;
32216;SDS011;67098;51.140;4.088;2023-08-21T03:20:45;6.50;;;2.00;;
32216;SDS011;67098;51.140;4.088;2023-08-21T03:23:12;8.88;;;2.10;;
32216;SDS011;67098;51.140;4.088;2023-08-21T03:25:38;11.25;;;1.85;;
32216;SDS011;67098;51.140;4.088;2023-08-21T03:28:03;11.35;;;2.40;;
32216;SDS011;67098;51.140;4.088;2023-08-21T03:30:29;9.07;;;2.22;;
32216;SDS011;67098;51.140;4.088;2023-08-21T03:32:55;8.18;;;2.35;;
32216;SDS011;67098;51.140;4.088;2023-08-21T03:35:21;10.10;;;2.13;;
32216;SDS011;67098;51.140;4.088;2023-08-21T03:37:48;8.13;;;2.00;;
32216;SDS011;67098;51.140;4.088;2023-08-21T03:40:15;5.88;;;2.15;;
32216;SDS011;67098;51.140;4.088;2023-08-21T03:42:41;12.70;;;2.38;;
32216;SDS011;67098;51.140;4.088;2023-08-21T03:45:08;8.57;;;2.10;;
32216;SDS011;67098;51.140;4.088;2023-08-21T03:47:34;9.15;;;2.28;;
32216;SDS011;67098;51.140;4.088;2023-08-21T03:50:01;8.05;;;1.80;;
32216;SDS011;67098;51.140;4.088;2023-08-21T03:52:29;7.38;;;1.75;;
32216;SDS011;67098;51.140;4.088;2023-08-21T03:54:55;9.23;;;2.28;;
32216;SDS011;67098;51.140;4.088;2023-08-21T03:57:20;7.63;;;1.95;;
32216;SDS011;67098;51.140;4.088;2023-08-21T03:59:46;7.78;;;1.70;;
32216;SDS011;67098;51.140;4.088;2023-08-21T04:02:12;8.20;;;2.20;;
32216;SDS011;67098;51.140;4.088;2023-08-21T04:04:37;8.35;;;1.90;;
32216;SDS011;67098;51.140;4.088;2023-08-21T04:07:03;6.60;;;2.35;;
32216;SDS011;67098;51.140;4.088;2023-08-21T04:09:29;9.05;;;2.08;;
32216;SDS011;67098;51.140;4.088;2023-08-21T04:11:55;10.27;;;2.30;;
32216;SDS011;67098;51.140;4.088;2023-08-21T04:14:21;6.20;;;1.85;;
32216;SDS011;67098;51.140;4.088;2023-08-21T04:16:46;9.20;;;2.22;;
32216;SDS011;67098;51.140;4.088;2023-08-21T04:19:12;10.95;;;2.50;;
32216;SDS011;67098;51.140;4.088;2023-08-21T04:21:38;9.40;;;2.15;;
32216;SDS011;67098;51.140;4.088;2023-08-21T04:24:04;7.40;;;2.10;;
32216;SDS011;67098;51.140;4.088;2023-08-21T04:26:30;9.73;;;2.05;;
32216;SDS011;67098;51.140;4.088;2023-08-21T04:28:56;7.38;;;2.20;;
32216;SDS011;67098;51.140;4.088;2023-08-21T04:31:22;7.85;;;1.95;;
32216;SDS011;67098;51.140;4.088;2023-08-21T04:33:48;8.73;;;2.10;;
32216;SDS011;67098;51.140;4.088;2023-08-21T04:36:17;8.18;;;2.35;;
32216;SDS011;67098;51.140;4.088;2023-08-21T04:38:43;8.43;;;2.33;;
32216;SDS011;67098;51.140;4.088;2023-08-21T04:41:09;10.75;;;2.40;;
32216;SDS011;67098;51.140;4.088;2023-08-21T04:43:35;9.25;;;2.42;;
32216;SDS011;67098;51.140;4.088;2023-08-21T04:46:01;10.80;;;2.22;;
32216;SDS011;67098;51.140;4.088;2023-08-21T04:48:26;10.35;;;1.98;;
32216;SDS011;67098;51.140;4.088;2023-08-21T04:50:52;10.70;;;2.45;;
32216;SDS011;67098;51.140;4.088;2023-08-21T04:53:18;9.68;;;2.67;;
32216;SDS011;67098;51.140;4.088;2023-08-21T04:55:44;13.15;;;3.00;;
32216;SDS011;67098;51.140;4.088;2023-08-21T04:58:10;11.35;;;2.35;;
32216;SDS011;67098;51.140;4.088;2023-08-21T05:00:36;10.65;;;2.53;;
32216;SDS011;67098;51.140;4.088;2023-08-21T05:03:02;12.88;;;2.60;;
32216;SDS011;67098;51.140;4.088;2023-08-21T05:05:28;7.65;;;2.22;;
32216;SDS011;67098;51.140;4.088;2023-08-21T05:07:54;9.63;;;2.47;;
32216;SDS011;67098;51.140;4.088;2023-08-21T05:10:20;15.25;;;2.70;;
32216;SDS011;67098;51.140;4.088;2023-08-21T05:12:45;10.80;;;2.85;;
32216;SDS011;67098;51.140;4.088;2023-08-21T05:15:11;7.88;;;2.80;;
32216;SDS011;67098;51.140;4.088;2023-08-21T05:17:37;12.63;;;3.40;;
32216;SDS011;67098;51.140;4.088;2023-08-21T05:20:03;15.93;;;3.35;;
32216;SDS011;67098;51.140;4.088;2023-08-21T05:22:29;11.55;;;3.22;;
32216;SDS011;67098;51.140;4.088;2023-08-21T05:24:55;15.75;;;3.55;;
32216;SDS011;67098;51.140;4.088;2023-08-21T05:27:21;13.65;;;3.65;;
32216;SDS011;67098;51.140;4.088;2023-08-21T05:29:47;10.55;;;4.00;;
32216;SDS011;67098;51.140;4.088;2023-08-21T05:32:14;9.93;;;3.83;;
32216;SDS011;67098;51.140;4.088;2023-08-21T05:34:40;13.77;;;4.30;;
32216;SDS011;67098;51.140;4.088;2023-08-21T05:37:06;21.55;;;3.92;;
32216;SDS011;67098;51.140;4.088;2023-08-21T05:39:32;22.48;;;4.57;;
32216;SDS011;67098;51.140;4.088;2023-08-21T05:41:59;19.38;;;4.82;;
32216;SDS011;67098;51.140;4.088;2023-08-21T05:44:25;18.67;;;3.88;;
32216;SDS011;67098;51.140;4.088;2023-08-21T05:46:50;13.48;;;4.45;;
32216;SDS011;67098;51.140;4.088;2023-08-21T05:49:16;22.77;;;4.50;;
32216;SDS011;67098;51.140;4.088;2023-08-21T05:51:42;18.27;;;4.65;;
32216;SDS011;67098;51.140;4.088;2023-08-21T05:54:08;14.57;;;3.90;;
32216;SDS011;67098;51.140;4.088;2023-08-21T05:56:33;17.40;;;4.07;;
32216;SDS011;67098;51.140;4.088;2023-08-21T05:58:59;15.43;;;3.92;;
32216;SDS011;67098;51.140;4.088;2023-08-21T06:01:25;16.70;;;4.20;;
32216;SDS011;67098;51.140;4.088;2023-08-21T06:03:51;19.60;;;4.40;;
32216;SDS011;67098;51.140;4.088;2023-08-21T06:06:16;15.07;;;4.40;;
32216;SDS011;67098;51.140;4.088;2023-08-21T06:08:42;16.30;;;4.15;;
32216;SDS011;67098;51.140;4.088;2023-08-21T06:11:08;13.20;;;4.00;;
32216;SDS011;67098;51.140;4.088;2023-08-21T06:13:34;13.23;;;3.40;;
32216;SDS011;67098;51.140;4.088;2023-08-21T06:16:00;11.43;;;3.92;;
32216;SDS011;67098;51.140;4.088;2023-08-21T06:18:25;13.25;;;4.25;;
32216;SDS011;67098;51.140;4.088;2023-08-21T06:20:51;18.60;;;4.25;;
32216;SDS011;67098;51.140;4.088;2023-08-21T06:23:19;12.73;;;4.03;;
32216;SDS011;67098;51.140;4.088;2023-08-21T06:25:47;14.32;;;3.53;;
32216;SDS011;67098;51.140;4.088;2023-08-21T06:28:16;16.23;;;4.27;;
32216;SDS011;67098;51.140;4.088;2023-08-21T06:30:41;13.93;;;4.22;;
32216;SDS011;67098;51.140;4.088;2023-08-21T06:33:07;11.60;;;3.72;;
32216;SDS011;67098;51.140;4.088;2023-08-21T06:35:36;15.80;;;4.40;;
32216;SDS011;67098;51.140;4.088;2023-08-21T06:38:02;18.90;;;4.85;;
32216;SDS011;67098;51.140;4.088;2023-08-21T06:40:28;16.92;;;5.38;;
32216;SDS011;67098;51.140;4.088;2023-08-21T06:42:54;28.65;;;6.55;;
32216;SDS011;67098;51.140;4.088;2023-08-21T06:45:20;16.52;;;6.20;;
32216;SDS011;67098;51.140;4.088;2023-08-21T06:47:46;20.45;;;6.38;;
32216;SDS011;67098;51.140;4.088;2023-08-21T06:50:12;20.13;;;5.72;;
32216;SDS011;67098;51.140;4.088;2023-08-21T06:52:38;20.25;;;5.55;;
32216;SDS011;67098;51.140;4.088;2023-08-21T06:55:04;20.60;;;6.30;;
32216;SDS011;67098;51.140;4.088;2023-08-21T06:57:30;25.85;;;6.30;;
32216;SDS011;67098;51.140;4.088;2023-08-21T06:59:56;29.73;;;7.00;;
32216;SDS011;67098;51.140;4.088;2023-08-21T07:02:22;18.38;;;5.85;;
32216;SDS011;67098;51.140;4.088;2023-08-21T07:04:48;21.95;;;6.22;;
32216;SDS011;67098;51.140;4.088;2023-08-21T07:07:13;27.35;;;6.75;;
32216;SDS011;67098;51.140;4.088;2023-08-21T07:09:39;19.67;;;6.22;;
32216;SDS011;67098;51.140;4.088;2023-08-21T07:12:05;18.75;;;6.25;;
32216;SDS011;67098;51.140;4.088;2023-08-21T07:14:32;19.75;;;6.50;;
32216;SDS011;67098;51.140;4.088;2023-08-21T07:16:57;22.02;;;6.07;;
32216;SDS011;67098;51.140;4.088;2023-08-21T07:19:23;20.08;;;6.10;;
32216;SDS011;67098;51.140;4.088;2023-08-21T07:21:49;20.65;;;6.75;;
32216;SDS011;67098;51.140;4.088;2023-08-21T07:24:15;20.92;;;6.55;;
32216;SDS011;67098;51.140;4.088;2023-08-21T07:26:41;20.17;;;6.20;;
32216;SDS011;67098;51.140;4.088;2023-08-21T07:29:06;19.50;;;4.85;;
32216;SDS011;67098;51.140;4.088;2023-08-21T07:31:32;23.30;;;5.88;;
32216;SDS011;67098;51.140;4.088;2023-08-21T07:33:59;21.60;;;6.13;;
32216;SDS011;67098;51.140;4.088;2023-08-21T07:36:24;32.90;;;6.38;;
32216;SDS011;67098;51.140;4.088;2023-08-21T07:38:50;22.27;;;6.05;;
32216;SDS011;67098;51.140;4.088;2023-08-21T07:41:16;22.15;;;6.53;;
32216;SDS011;67098;51.140;4.088;2023-08-21T07:43:42;19.35;;;5.50;;
32216;SDS011;67098;51.140;4.088;2023-08-21T07:46:10;18.95;;;5.38;;
32216;SDS011;67098;51.140;4.088;2023-08-21T07:48:43;20.80;;;5.20;;
32216;SDS011;67098;51.140;4.088;2023-08-21T07:51:10;19.08;;;5.07;;
32216;SDS011;67098;51.140;4.088;2023-08-21T07:53:36;16.75;;;4.57;;
32216;SDS011;67098;51.140;4.088;2023-08-21T07:56:03;20.85;;;4.18;;
32216;SDS011;67098;51.140;4.088;2023-08-21T07:58:29;15.93;;;4.75;;
32216;SDS011;67098;51.140;4.088;2023-08-21T08:00:55;19.58;;;5.22;;
32216;SDS011;67098;51.140;4.088;2023-08-21T08:03:21;17.05;;;5.38;;
32216;SDS011;67098;51.140;4.088;2023-08-21T08:05:47;18.60;;;5.65;;
32216;SDS011;67098;51.140;4.088;2023-08-21T08:08:13;22.42;;;4.57;;
32216;SDS011;67098;51.140;4.088;2023-08-21T08:10:39;16.75;;;4.20;;
32216;SDS011;67098;51.140;4.088;2023-08-21T08:13:06;13.40;;;3.72;;
32216;SDS011;67098;51.140;4.088;2023-08-21T08:15:33;15.00;;;4.53;;
32216;SDS011;67098;51.140;4.088;2023-08-21T08:18:00;17.05;;;3.88;;
32216;SDS011;67098;51.140;4.088;2023-08-21T08:20:29;17.40;;;4.00;;
32216;SDS011;67098;51.140;4.088;2023-08-21T08:22:55;25.85;;;4.70;;
32216;SDS011;67098;51.140;4.088;2023-08-21T08:25:21;15.30;;;3.65;;
32216;SDS011;67098;51.140;4.088;2023-08-21T08:27:47;12.93;;;3.88;;
32216;SDS011;67098;51.140;4.088;2023-08-21T08:30:14;15.65;;;4.18;;
32216;SDS011;67098;51.140;4.088;2023-08-21T08:32:40;17.98;;;5.10;;
32216;SDS011;67098;51.140;4.088;2023-08-21T08:35:11;19.42;;;5.05;;
32216;SDS011;67098;51.140;4.088;2023-08-21T08:37:43;16.00;;;3.55;;
32216;SDS011;67098;51.140;4.088;2023-08-21T08:40:10;17.23;;;4.22;;
32216;SDS011;67098;51.140;4.088;2023-08-21T08:42:37;13.82;;;3.75;;
32216;SDS011;67098;51.140;4.088;2023-08-21T08:45:04;17.60;;;4.18;;
32216;SDS011;67098;51.140;4.088;2023-08-21T08:47:32;26.75;;;5.13;;
32216;SDS011;67098;51.140;4.088;2023-08-21T08:52:29;19.10;;;5.97;;
32216;SDS011;67098;51.140;4.088;2023-08-21T08:54:59;20.90;;;5.60;;
32216;SDS011;67098;51.140;4.088;2023-08-21T08:57:28;19.08;;;5.88;;
32216;SDS011;67098;51.140;4.088;2023-08-21T08:59:55;17.02;;;4.93;;
32216;SDS011;67098;51.140;4.088;2023-08-21T09:02:23;19.67;;;4.82;;
32216;SDS011;67098;51.140;4.088;2023-08-21T09:04:51;14.37;;;4.77;;
32216;SDS011;67098;51.140;4.088;2023-08-21T09:07:17;19.65;;;5.03;;
32216;SDS011;67098;51.140;4.088;2023-08-21T09:09:46;15.15;;;4.75;;
32216;SDS011;67098;51.140;4.088;2023-08-21T09:12:18;14.32;;;4.30;;
32216;SDS011;67098;51.140;4.088;2023-08-21T09:14:44;16.45;;;4.53;;
32216;SDS011;67098;51.140;4.088;2023-08-21T09:17:10;13.10;;;3.55;;
32216;SDS011;67098;51.140;4.088;2023-08-21T09:19:37;18.67;;;4.65;;
32216;SDS011;67098;51.140;4.088;2023-08-21T09:22:10;17.38;;;4.15;;
32216;SDS011;67098;51.140;4.088;2023-08-21T09:24:38;15.30;;;4.13;;
32216;SDS011;67098;51.140;4.088;2023-08-21T09:27:05;12.93;;;4.15;;
32216;SDS011;67098;51.140;4.088;2023-08-21T09:29:39;13.40;;;3.50;;
32216;SDS011;67098;51.140;4.088;2023-08-21T09:32:05;17.42;;;5.28;;
32216;SDS011;67098;51.140;4.088;2023-08-21T09:34:35;19.70;;;5.30;;
32216;SDS011;67098;51.140;4.088;2023-08-21T09:37:04;15.23;;;4.05;;
32216;SDS011;67098;51.140;4.088;2023-08-21T09:39:34;13.07;;;4.03;;
32216;SDS011;67098;51.140;4.088;2023-08-21T09:42:08;17.60;;;4.25;;
32216;SDS011;67098;51.140;4.088;2023-08-21T09:44:38;15.77;;;4.00;;
32216;SDS011;67098;51.140;4.088;2023-08-21T09:49:34;19.80;;;4.93;;
32216;SDS011;67098;51.140;4.088;2023-08-21T09:52:02;15.43;;;4.97;;
32216;SDS011;67098;51.140;4.088;2023-08-21T09:54:30;15.30;;;4.00;;
32216;SDS011;67098;51.140;4.088;2023-08-21T09:57:00;9.40;;;3.22;;
32216;SDS011;67098;51.140;4.088;2023-08-21T09:59:27;10.40;;;3.03;;
32216;SDS011;67098;51.140;4.088;2023-08-21T10:01:54;10.23;;;2.65;;
32216;SDS011;67098;51.140;4.088;2023-08-21T10:04:22;8.23;;;2.97;;
32216;SDS011;67098;51.140;4.088;2023-08-21T10:06:50;10.20;;;3.75;;
32216;SDS011;67098;51.140;4.088;2023-08-21T10:09:19;15.20;;;4.03;;
32216;SDS011;67098;51.140;4.088;2023-08-21T10:11:47;18.85;;;3.72;;
32216;SDS011;67098;51.140;4.088;2023-08-21T10:14:13;13.35;;;4.25;;
32216;SDS011;67098;51.140;4.088;2023-08-21T10:16:39;13.30;;;4.22;;
32216;SDS011;67098;51.140;4.088;2023-08-21T10:19:06;14.35;;;5.63;;
32216;SDS011;67098;51.140;4.088;2023-08-21T10:21:37;12.05;;;5.32;;
32216;SDS011;67098;51.140;4.088;2023-08-21T10:24:02;14.30;;;4.97;;
32216;SDS011;67098;51.140;4.088;2023-08-21T10:26:28;12.07;;;4.38;;
32216;SDS011;67098;51.140;4.088;2023-08-21T10:28:55;15.70;;;4.90;;
32216;SDS011;67098;51.140;4.088;2023-08-21T10:34:07;15.43;;;4.95;;
32216;SDS011;67098;51.140;4.088;2023-08-21T10:44:34;12.95;;;4.00;;
32216;SDS011;67098;51.140;4.088;2023-08-21T10:49:54;12.65;;;3.92;;
32216;SDS011;67098;51.140;4.088;2023-08-21T10:52:22;18.67;;;4.10;;
32216;SDS011;67098;51.140;4.088;2023-08-21T10:54:52;14.70;;;3.33;;
32216;SDS011;67098;51.140;4.088;2023-08-21T10:57:26;15.60;;;3.80;;
32216;SDS011;67098;51.140;4.088;2023-08-21T11:02:23;10.45;;;4.18;;
32216;SDS011;67098;51.140;4.088;2023-08-21T11:04:50;12.55;;;3.88;;
32216;SDS011;67098;51.140;4.088;2023-08-21T11:07:16;9.82;;;3.13;;
32216;SDS011;67098;51.140;4.088;2023-08-21T11:09:44;10.73;;;2.40;;
32216;SDS011;67098;51.140;4.088;2023-08-21T11:12:11;8.32;;;2.20;;
32216;SDS011;67098;51.140;4.088;2023-08-21T11:14:38;5.22;;;2.33;;
32216;SDS011;67098;51.140;4.088;2023-08-21T11:17:05;8.80;;;3.05;;
32216;SDS011;67098;51.140;4.088;2023-08-21T11:19:31;4.85;;;1.90;;
32216;SDS011;67098;51.140;4.088;2023-08-21T11:21:58;8.35;;;2.13;;
32216;SDS011;67098;51.140;4.088;2023-08-21T11:27:05;5.00;;;1.60;;
32216;SDS011;67098;51.140;4.088;2023-08-21T11:29:38;6.03;;;1.67;;
32216;SDS011;67098;51.140;4.088;2023-08-21T11:32:15;5.53;;;1.70;;
32216;SDS011;67098;51.140;4.088;2023-08-21T11:34:56;7.30;;;1.92;;
32216;SDS011;67098;51.140;4.088;2023-08-21T11:37:23;5.88;;;2.05;;
32216;SDS011;67098;51.140;4.088;2023-08-21T11:39:56;5.28;;;1.63;;
32216;SDS011;67098;51.140;4.088;2023-08-21T11:42:28;5.22;;;2.05;;
32216;SDS011;67098;51.140;4.088;2023-08-21T11:44:58;6.70;;;1.83;;
32216;SDS011;67098;51.140;4.088;2023-08-21T11:47:32;5.10;;;1.50;;
32216;SDS011;67098;51.140;4.088;2023-08-21T11:50:02;4.45;;;1.15;;
32216;SDS011;67098;51.140;4.088;2023-08-21T11:52:30;2.95;;;1.05;;
32216;SDS011;67098;51.140;4.088;2023-08-21T11:55:06;4.43;;;0.80;;
32216;SDS011;67098;51.140;4.088;2023-08-21T11:57:34;1.70;;;0.80;;
32216;SDS011;67098;51.140;4.088;2023-08-21T12:00:01;5.40;;;1.00;;
32216;SDS011;67098;51.140;4.088;2023-08-21T12:02:27;2.95;;;1.38;;
32216;SDS011;67098;51.140;4.088;2023-08-21T12:07:32;5.30;;;1.58;;
32216;SDS011;67098;51.140;4.088;2023-08-21T12:09:58;4.63;;;1.30;;
32216;SDS011;67098;51.140;4.088;2023-08-21T12:12:24;2.95;;;1.00;;
32216;SDS011;67098;51.140;4.088;2023-08-21T12:14:50;5.97;;;1.02;;
32216;SDS011;67098;51.140;4.088;2023-08-21T12:17:16;3.10;;;0.70;;
32216;SDS011;67098;51.140;4.088;2023-08-21T12:19:42;3.83;;;0.90;;
32216;SDS011;67098;51.140;4.088;2023-08-21T12:22:08;3.95;;;0.90;;
32216;SDS011;67098;51.140;4.088;2023-08-21T12:24:34;2.60;;;1.13;;
32216;SDS011;67098;51.140;4.088;2023-08-21T12:27:02;6.55;;;1.38;;
32216;SDS011;67098;51.140;4.088;2023-08-21T12:29:29;5.07;;;1.25;;
32216;SDS011;67098;51.140;4.088;2023-08-21T12:31:54;4.10;;;1.25;;
32216;SDS011;67098;51.140;4.088;2023-08-21T12:34:20;3.20;;;1.20;;
32216;SDS011;67098;51.140;4.088;2023-08-21T12:36:46;3.50;;;1.20;;
32216;SDS011;67098;51.140;4.088;2023-08-21T12:39:15;3.63;;;1.30;;
32216;SDS011;67098;51.140;4.088;2023-08-21T12:41:41;4.72;;;1.23;;
32216;SDS011;67098;51.140;4.088;2023-08-21T12:44:08;5.50;;;1.35;;
32216;SDS011;67098;51.140;4.088;2023-08-21T12:46:37;4.95;;;1.38;;
32216;SDS011;67098;51.140;4.088;2023-08-21T12:49:04;4.70;;;1.33;;
32216;SDS011;67098;51.140;4.088;2023-08-21T12:51:30;5.55;;;1.10;;
32216;SDS011;67098;51.140;4.088;2023-08-21T12:53:55;3.83;;;1.40;;
32216;SDS011;67098;51.140;4.088;2023-08-21T12:56:21;4.63;;;1.23;;
32216;SDS011;67098;51.140;4.088;2023-08-21T12:58:47;4.47;;;1.60;;
32216;SDS011;67098;51.140;4.088;2023-08-21T13:01:13;5.95;;;1.42;;
32216;SDS011;67098;51.140;4.088;2023-08-21T13:03:45;4.63;;;1.10;;
32216;SDS011;67098;51.140;4.088;2023-08-21T13:06:12;4.47;;;1.47;;
32216;SDS011;67098;51.140;4.088;2023-08-21T13:08:39;4.22;;;1.17;;
32216;SDS011;67098;51.140;4.088;2023-08-21T13:11:05;4.90;;;1.55;;
32216;SDS011;67098;51.140;4.088;2023-08-21T13:13:31;6.35;;;1.67;;
32216;SDS011;67098;51.140;4.088;2023-08-21T13:15:57;4.95;;;1.38;;
32216;SDS011;67098;51.140;4.088;2023-08-21T13:18:25;8.30;;;1.60;;
32216;SDS011;67098;51.140;4.088;2023-08-21T13:20:52;3.88;;;1.30;;
32216;SDS011;67098;51.140;4.088;2023-08-21T13:23:18;3.78;;;1.40;;
32216;SDS011;67098;51.140;4.088;2023-08-21T13:25:43;10.20;;;1.83;;
32216;SDS011;67098;51.140;4.088;2023-08-21T13:28:09;5.15;;;1.65;;
32216;SDS011;67098;51.140;4.088;2023-08-21T13:30:36;9.07;;;2.10;;
32216;SDS011;67098;51.140;4.088;2023-08-21T13:33:02;5.13;;;1.42;;
32216;SDS011;67098;51.140;4.088;2023-08-21T13:35:29;8.40;;;1.20;;
32216;SDS011;67098;51.140;4.088;2023-08-21T13:37:56;7.38;;;1.27;;
32216;SDS011;67098;51.140;4.088;2023-08-21T13:40:21;4.85;;;1.33;;
32216;SDS011;67098;51.140;4.088;2023-08-21T13:42:48;6.45;;;1.05;;
32216;SDS011;67098;51.140;4.088;2023-08-21T13:45:14;3.25;;;1.10;;
32216;SDS011;67098;51.140;4.088;2023-08-21T13:47:43;3.45;;;1.00;;
32216;SDS011;67098;51.140;4.088;2023-08-21T13:50:14;6.70;;;1.48;;
32216;SDS011;67098;51.140;4.088;2023-08-21T13:52:41;4.90;;;1.20;;
32216;SDS011;67098;51.140;4.088;2023-08-21T13:55:08;2.15;;;0.90;;
32216;SDS011;67098;51.140;4.088;2023-08-21T13:57:35;5.38;;;1.23;;
32216;SDS011;67098;51.140;4.088;2023-08-21T14:00:03;7.47;;;1.73;;
32216;SDS011;67098;51.140;4.088;2023-08-21T14:02:33;4.75;;;1.50;;
32216;SDS011;67098;51.140;4.088;2023-08-21T14:05:00;6.22;;;1.70;;
32216;SDS011;67098;51.140;4.088;2023-08-21T14:07:26;10.07;;;2.13;;
32216;SDS011;67098;51.140;4.088;2023-08-21T14:09:52;5.93;;;1.77;;
32216;SDS011;67098;51.140;4.088;2023-08-21T14:12:18;5.30;;;1.60;;
32216;SDS011;67098;51.140;4.088;2023-08-21T14:14:44;6.50;;;1.63;;
32216;SDS011;67098;51.140;4.088;2023-08-21T14:17:10;6.07;;;1.65;;
32216;SDS011;67098;51.140;4.088;2023-08-21T14:19:36;7.85;;;2.30;;
32216;SDS011;67098;51.140;4.088;2023-08-21T14:22:01;6.28;;;1.73;;
32216;SDS011;67098;51.140;4.088;2023-08-21T14:24:28;9.63;;;2.17;;
32216;SDS011;67098;51.140;4.088;2023-08-21T14:26:54;8.93;;;2.40;;
32216;SDS011;67098;51.140;4.088;2023-08-21T14:29:19;10.10;;;2.60;;
32216;SDS011;67098;51.140;4.088;2023-08-21T14:31:45;7.93;;;2.50;;
32216;SDS011;67098;51.140;4.088;2023-08-21T14:34:12;11.23;;;2.20;;
32216;SDS011;67098;51.140;4.088;2023-08-21T14:36:38;7.15;;;2.25;;
32216;SDS011;67098;51.140;4.088;2023-08-21T14:39:04;7.97;;;2.08;;
32216;SDS011;67098;51.140;4.088;2023-08-21T14:41:31;8.35;;;2.35;;
32216;SDS011;67098;51.140;4.088;2023-08-21T14:43:57;8.95;;;2.10;;
32216;SDS011;67098;51.140;4.088;2023-08-21T14:46:23;5.35;;;2.08;;
32216;SDS011;67098;51.140;4.088;2023-08-21T14:48:48;8.85;;;2.13;;
32216;SDS011;67098;51.140;4.088;2023-08-21T14:51:14;5.50;;;1.98;;
32216;SDS011;67098;51.140;4.088;2023-08-21T14:53:40;10.40;;;2.40;;
32216;SDS011;67098;51.140;4.088;2023-08-21T14:56:06;5.93;;;2.55;;
32216;SDS011;67098;51.140;4.088;2023-08-21T14:58:31;10.15;;;2.92;;
32216;SDS011;67098;51.140;4.088;2023-08-21T15:00:58;7.30;;;2.30;;
32216;SDS011;67098;51.140;4.088;2023-08-21T15:03:24;10.90;;;3.33;;
32216;SDS011;67098;51.140;4.088;2023-08-21T15:05:50;11.52;;;2.72;;
32216;SDS011;67098;51.140;4.088;2023-08-21T15:08:16;6.60;;;2.00;;
32216;SDS011;67098;51.140;4.088;2023-08-21T15:10:42;6.55;;;2.35;;
32216;SDS011;67098;51.140;4.088;2023-08-21T15:13:08;8.25;;;2.05;;